Ana Sayfa
METAR-TAF:

METAR-TAF

Havaalanları :

Cape May County Airport

Wildwood, New Jersey, Amerika Birleşik Devletleri

Enlem: 39-01N, Boylam: 074-55W, yükseklik: 7 m

Güncel hava durumu gözlemi

Rapor saat 19:56 UTC de 42 dakika önce yapıldı.
Rüzgar doğu/kuzeydoğudan 11 kt ve 18 kt'a kadar ani rüzgarlar
Sıcaklık 8°C
Nem 71%
Basınç 1014 hPa
Görüş mesafesi: 16.1 km
1900 ft yükseklikte çok bulutlu

METAR: KWWD 311956Z AUTO 07011G18KT 10SM OVC019 08/03 A2995 RMK AO2 SLP146 T00780033

Saat: 16:38 (20:38 UTC)


TAF: eksik

4.000'den fazla havaalanı için hava durumu gözlemleri ve tahminleri (METAR ve TAF raporları).

Kullanılabilir istasyonlar harita üzerinde sarı ve kırmızı noktalarla gösterilir.

İstasyonun adını görmek için fareyi noktanın üzerinde gezdirin.

Sonrasında hava gözlem ve tahminlerini görmek için tıklayın.

Haritayı değiştirmek için: yaklaştırmak için siyah artı işaretli yeşil düğmeye ve uzaklaştırmak için de eksi işaretli düğmeye hızla tıklayın; bitişik haritalar için yeşil okları kullanın.


METAR-TAF: